This is the latest recevied weather packets stored in our database for station/object N6WDO. If no packets are shown the sender has not sent any weather packets the latest 10 day(s).
| Time | Temp. | Humidity | Pressure | Rain* | Wind** | Luminosity | Snow |
|---|---|---|---|---|---|---|---|
| 1777517583 | 17.78° C | 54% | 1016.1 hPa | 0 mm | - | 1 W/m² | - |
| 1777517281 | 18.33° C | 50% | 1015.9 hPa | 0 mm | - | 2 W/m² | - |
| 1777516979 | 18.33° C | 49% | 1016 hPa | 0 mm | - | 3 W/m² | - |
| 1777516676 | 18.33° C | 49% | 1016 hPa | 0 mm | - | 5 W/m² | - |
| 1777516372 | 18.89° C | 48% | 1015.9 hPa | 0 mm | - | 8 W/m² | - |
| 1777516068 | 18.89° C | 45% | 1016 hPa | 0 mm | - | 10 W/m² | - |
| 1777515765 | 18.89° C | 47% | 1016 hPa | 0 mm | - | 13 W/m² | - |
| 1777515462 | 19.44° C | 46% | 1015.9 hPa | 0 mm | - | 16 W/m² | - |
| 1777515159 | 20° C | 45% | 1015.9 hPa | 0 mm | - | 18 W/m² | - |
| 1777514855 | 20° C | 44% | 1015.9 hPa | 0 mm | - | 20 W/m² | - |
| 1777514552 | 20.56° C | 43% | 1016 hPa | 0 mm | - | 22 W/m² | - |
| 1777514250 | 20.56° C | 43% | 1016 hPa | 0 mm | - | 24 W/m² | - |
| 1777513945 | 20.56° C | 42% | 1016.1 hPa | 0 mm | - | 26 W/m² | - |
| 1777513643 | 21.11° C | 40% | 1016 hPa | 0 mm | - | 28 W/m² | - |
| 1777513340 | 21.11° C | 40% | 1016 hPa | 0 mm | - | 29 W/m² | - |
| 1777513036 | 21.67° C | 41% | 1016.1 hPa | 0 mm | - | 31 W/m² | - |
| 1777512429 | 21.67° C | 43% | 1016 hPa | 0 mm | - | 33 W/m² | - |
| 1777512126 | 22.22° C | 40% | 1016.1 hPa | 0 mm | - | 34 W/m² | - |
| 1777511824 | 22.22° C | 42% | 1016.1 hPa | 0 mm | - | 36 W/m² | - |
| 1777511520 | 22.22° C | 38% | 1015.9 hPa | 0 mm | - | 36 W/m² | - |
| 1777510610 | 22.78° C | 37% | 1016 hPa | 0 mm | - | 43 W/m² | - |
| 1777509093 | 23.33° C | 37% | 1016.2 hPa | 0 mm | - | 162 W/m² | - |
| 1777508184 | 23.89° C | 33% | 1016.5 hPa | 0 mm | - | 226 W/m² | - |
| 1777506972 | 24.44° C | 31% | 1016.5 hPa | 0 mm | - | 67 W/m² | - |
| 1777505756 | 25° C | 29% | 1016.8 hPa | 0 mm | - | 393 W/m² | - |
* Rain latest hour (hover to see other rain measurements)
** Current wind speed in m/s (hover to see current wind gust speed)